Time;durP1;ratioP1;P1;durP2;ratioP2;P2;SDS_P1;SDS_P2;PMS_P1;PMS_P2;Temp;Humidity;BMP_temperature;BMP_pressure;BME280_temperature;BME280_humidity;BME280_pressure;Samples;Min_cycle;Max_cycle;Signal;HPM_P1;HPM_P2
2023/06/10 00:01:41;;;;;;;10.13;7.25;;;;;;;17.87;88.55;98832.88;4989882;28;20042;-81
2023/06/10 00:04:07;;;;;;;15.02;8.07;;;;;;;18.12;87.14;98829.31;4991172;28;20085;-80
2023/06/10 00:06:35;;;;;;;10.85;7.60;;;;;;;18.27;85.91;98827.28;4989693;28;20425;-80
2023/06/10 00:09:05;;;;;;;9.65;7.32;;;;;;;18.10;86.26;98826.88;4991074;28;20026;-80
2023/06/10 00:11:32;;;;;;;14.50;7.20;;;;;;;18.01;87.03;98832.09;4990137;28;20184;-80
2023/06/10 00:13:58;;;;;;;7.75;6.65;;;;;;;18.13;86.56;98825.28;4989120;28;20470;-80
2023/06/10 00:16:24;;;;;;;12.52;7.47;;;;;;;17.78;87.97;98828.41;4982545;28;20472;-80
2023/06/10 00:18:51;;;;;;;12.63;7.70;;;;;;;17.75;89.34;98826.38;5003080;28;20409;-80
2023/06/10 00:21:17;;;;;;;11.90;8.13;;;;;;;17.70;89.24;98823.94;4990263;28;20027;-80
2023/06/10 00:23:43;;;;;;;13.40;7.90;;;;;;;17.85;88.50;98835.28;4986408;28;20039;-80
2023/06/10 00:26:09;;;;;;;9.77;7.93;;;;;;;17.59;89.70;98840.03;4988636;28;20035;-80
2023/06/10 00:28:35;;;;;;;13.60;8.32;;;;;;;17.37;91.17;98837.94;4992138;28;20028;-80
2023/06/10 00:31:01;;;;;;;13.30;8.38;;;;;;;17.29;92.74;98830.63;4994322;28;20033;-80
2023/06/10 00:33:27;;;;;;;11.07;8.00;;;;;;;17.07;93.62;98824.06;4991062;28;20026;-80
2023/06/10 00:35:53;;;;;;;11.02;7.40;;;;;;;17.10;93.51;98824.09;4992390;28;20508;-80
2023/06/10 00:38:18;;;;;;;9.32;8.07;;;;;;;17.42;91.34;98819.81;4994512;28;20057;-80
2023/06/10 00:40:44;;;;;;;14.23;8.10;;;;;;;17.49;89.76;98821.84;4993952;28;20076;-80
2023/06/10 00:43:10;;;;;;;9.02;7.90;;;;;;;17.40;90.24;98830.69;4991654;28;20110;-80
2023/06/10 00:45:35;;;;;;;14.38;8.50;;;;;;;17.31;90.33;98821.78;4989511;28;20036;-81
2023/06/10 00:48:01;;;;;;;9.57;8.10;;;;;;;17.18;91.26;98824.13;4973687;28;20023;-80
2023/06/10 00:50:27;;;;;;;12.40;8.15;;;;;;;17.21;90.38;98824.16;4991126;28;20065;-80
2023/06/10 00:52:54;;;;;;;10.00;8.55;;;;;;;17.19;91.03;98820.91;4992554;28;21897;-80
2023/06/10 00:55:20;;;;;;;10.90;8.27;;;;;;;17.30;90.44;98822.97;4983286;28;20042;-80
2023/06/10 00:57:48;;;;;;;12.75;7.80;;;;;;;17.07;91.45;98824.06;4985315;28;20026;-80
2023/06/10 01:00:15;;;;;;;10.07;7.95;;;;;;;16.89;92.37;98818.28;4992218;28;20125;-80
2023/06/10 01:02:41;;;;;;;9.60;8.43;;;;;;;16.80;93.28;98821.47;4992569;28;20034;-80
2023/06/10 01:05:08;;;;;;;12.20;8.57;;;;;;;16.88;93.09;98822.31;4993660;28;20041;-80
2023/06/10 01:07:46;;;;;;;13.45;8.80;;;;;;;16.96;93.65;98824.78;4993667;28;20038;-80
2023/06/10 01:10:20;;;;;;;13.18;8.95;;;;;;;17.28;90.95;98828.22;4992898;28;20046;-80
2023/06/10 01:12:56;;;;;;;14.77;8.88;;;;;;;16.95;91.98;98834.47;4992088;28;20038;-81
2023/06/10 01:15:22;;;;;;;14.43;8.98;;;;;;;16.83;93.88;98835.63;4993621;28;20030;-80
2023/06/10 01:18:14;;;;;;;11.20;8.93;;;;;;;16.67;94.40;98846.38;4992247;28;20528;-80
2023/06/10 01:20:42;;;;;;;10.60;9.27;;;;;;;16.32;97.88;98845.69;5008277;28;20030;-80
2023/06/10 01:23:09;;;;;;;14.20;9.00;;;;;;;16.70;96.32;98843.56;5008219;28;20056;-80
2023/06/10 01:25:38;;;;;;;13.07;8.82;;;;;;;16.61;96.60;98843.09;5008423;28;20034;-80
2023/06/10 01:28:24;;;;;;;12.00;8.50;;;;;;;16.63;95.97;98840.69;4991511;28;20072;-80
2023/06/10 01:31:07;;;;;;;12.30;8.48;;;;;;;16.69;96.38;98841.13;4993063;28;20105;-80
2023/06/10 01:33:37;;;;;;;9.60;7.93;;;;;;;16.51;97.49;98841.00;4991893;28;20489;-80
2023/06/10 01:36:03;;;;;;;9.75;7.53;;;;;;;16.46;98.20;98836.53;5007147;28;20034;-80
2023/06/10 01:38:39;;;;;;;9.80;8.20;;;;;;;16.58;97.48;98834.59;5008078;28;20040;-80
2023/06/10 01:41:06;;;;;;;12.95;7.07;;;;;;;16.50;97.80;98828.09;4992618;28;20037;-80
2023/06/10 01:43:34;;;;;;;11.95;8.15;;;;;;;16.53;98.01;98832.94;4990695;28;20049;-79
2023/06/10 01:45:59;;;;;;;14.60;8.48;;;;;;;16.42;97.61;98830.06;4992836;28;20034;-79
2023/06/10 01:48:25;;;;;;;9.40;8.15;;;;;;;16.50;96.98;98825.28;4992945;28;20405;-80
2023/06/10 01:50:50;;;;;;;12.50;9.25;;;;;;;16.49;96.63;98821.66;4992942;28;20034;-80
2023/06/10 01:53:16;;;;;;;15.48;8.48;;;;;;;16.37;97.70;98828.41;4992349;28;20037;-80
2023/06/10 01:55:41;;;;;;;14.40;9.05;;;;;;;16.16;98.65;98833.84;5007824;28;20492;-80
2023/06/10 01:58:07;;;;;;;10.57;8.80;;;;;;;16.00;99.87;98824.44;5006039;28;20488;-80
2023/06/10 02:00:32;;;;;;;19.95;9.50;;;;;;;16.14;99.07;98831.44;4989773;28;20030;-80
2023/06/10 02:02:57;;;;;;;12.93;9.55;;;;;;;16.22;98.45;98829.47;4991206;28;20022;-79
2023/06/10 02:05:23;;;;;;;19.45;10.75;;;;;;;16.27;98.58;98840.41;4992582;28;20061;-80
2023/06/10 02:07:48;;;;;;;18.75;10.85;;;;;;;15.95;100.00;98830.44;4991880;28;20394;-80
2023/06/10 02:10:14;;;;;;;28.85;11.73;;;;;;;15.90;100.00;98838.41;4992215;28;20058;-79
2023/06/10 02:12:39;;;;;;;24.13;13.82;;;;;;;15.95;100.00;98835.28;4992170;28;20037;-79
2023/06/10 02:15:05;;;;;;;32.72;18.15;;;;;;;15.98;100.00;98834.50;5006255;28;20034;-80
2023/06/10 02:17:32;;;;;;;34.80;21.20;;;;;;;15.88;100.00;98838.78;4991614;28;20050;-79
2023/06/10 02:19:59;;;;;;;27.45;17.63;;;;;;;15.90;100.00;98841.25;4991915;28;20060;-79
2023/06/10 02:22:25;;;;;;;25.67;15.52;;;;;;;15.89;100.00;98845.22;5007174;28;20034;-79
2023/06/10 02:24:50;;;;;;;21.85;13.50;;;;;;;15.93;100.00;98832.03;4990786;28;20064;-79
2023/06/10 02:27:16;;;;;;;20.13;13.30;;;;;;;16.00;100.00;98830.09;4990819;28;20065;-79
2023/06/10 02:29:43;;;;;;;22.50;12.82;;;;;;;16.07;100.00;98825.69;4992217;28;20137;-79
2023/06/10 02:32:09;;;;;;;44.28;13.80;;;;;;;16.00;100.00;98823.63;4991809;28;20041;-79
2023/06/10 02:34:36;;;;;;;16.92;12.63;;;;;;;16.13;98.73;98836.25;4991615;28;20521;-79
2023/06/10 02:37:02;;;;;;;18.95;12.95;;;;;;;16.30;97.37;98834.00;4990845;28;20038;-79
2023/06/10 02:39:28;;;;;;;38.72;12.98;;;;;;;16.45;96.22;98837.72;4987271;28;20034;-79
2023/06/10 02:41:53;;;;;;;17.73;14.38;;;;;;;16.54;95.26;98834.59;4981989;28;20587;-79
2023/06/10 02:44:19;;;;;;;22.40;16.35;;;;;;;16.66;93.94;98839.09;4992023;28;20034;-79
2023/06/10 02:46:45;;;;;;;23.30;17.85;;;;;;;16.64;94.59;98839.50;4991862;28;20026;-79
2023/06/10 02:49:11;;;;;;;21.08;16.60;;;;;;;16.82;93.83;98842.44;4992211;28;20026;-79
2023/06/10 02:51:37;;;;;;;24.42;16.83;;;;;;;16.92;92.99;98840.91;4990426;28;20400;-79
2023/06/10 02:54:02;;;;;;;24.10;15.73;;;;;;;17.08;91.92;98839.81;4991628;28;20030;-80
2023/06/10 02:56:28;;;;;;;32.92;18.73;;;;;;;17.21;91.36;98841.09;4990839;28;20080;-79
2023/06/10 02:58:53;;;;;;;29.20;16.17;;;;;;;16.96;91.64;98838.91;5005868;28;20100;-79
2023/06/10 03:01:19;;;;;;;26.05;17.50;;;;;;;17.05;91.71;98838.59;4990203;28;20030;-79
2023/06/10 03:03:46;;;;;;;28.40;17.60;;;;;;;17.22;91.03;98839.09;5006406;28;20558;-79
2023/06/10 03:06:12;;;;;;;29.75;14.75;;;;;;;17.37;90.13;98834.28;4977405;28;20038;-79
2023/06/10 03:08:38;;;;;;;19.77;12.90;;;;;;;17.66;89.72;98842.91;4991719;28;20052;-79
2023/06/10 03:11:03;;;;;;;14.85;12.65;;;;;;;17.81;87.95;98838.91;4990782;28;20046;-79
2023/06/10 03:13:29;;;;;;;23.85;13.25;;;;;;;17.86;87.46;98848.19;4990505;28;20089;-79
2023/06/10 03:15:54;;;;;;;20.38;11.98;;;;;;;17.98;86.99;98847.03;4991773;28;20022;-79
2023/06/10 03:18:20;;;;;;;17.70;13.32;;;;;;;18.05;86.36;98858.41;4990941;28;20027;-79
2023/06/10 03:20:45;;;;;;;21.35;12.85;;;;;;;17.88;87.96;98848.63;5006279;28;20050;-79
2023/06/10 03:23:11;;;;;;;18.88;12.32;;;;;;;17.74;88.78;98858.72;4989995;28;20597;-79
2023/06/10 03:25:37;;;;;;;16.77;12.05;;;;;;;17.79;88.48;98860.31;4989080;28;20023;-79
2023/06/10 03:28:05;;;;;;;13.07;10.38;;;;;;;17.79;88.27;98851.81;5005273;28;20113;-80
2023/06/10 03:30:31;;;;;;;20.80;11.45;;;;;;;17.79;88.76;98854.66;4991661;28;20023;-79
2023/06/10 03:32:56;;;;;;;15.38;11.43;;;;;;;17.81;88.82;98855.88;4986677;28;20019;-79
2023/06/10 03:35:22;;;;;;;17.08;10.20;;;;;;;17.97;88.11;98863.19;4992059;28;20401;-79
2023/06/10 03:37:47;;;;;;;12.38;10.02;;;;;;;17.94;88.34;98858.34;5005642;28;20030;-79
2023/06/10 03:40:13;;;;;;;14.00;9.77;;;;;;;17.94;88.54;98864.00;4986627;28;20035;-79
2023/06/10 03:42:38;;;;;;;14.70;10.10;;;;;;;17.96;88.64;98870.06;4987879;28;20030;-79
2023/06/10 03:45:04;;;;;;;20.38;10.75;;;;;;;17.96;88.62;98870.06;4991070;28;20048;-79
2023/06/10 03:47:37;;;;;;;10.50;9.02;;;;;;;18.14;87.71;98863.69;4991303;28;20026;-79
2023/06/10 03:50:03;;;;;;;11.00;8.88;;;;;;;18.09;87.51;98860.00;4991632;28;20044;-79
2023/06/10 03:52:29;;;;;;;12.43;9.38;;;;;;;18.13;87.25;98856.41;4990990;28;20045;-79
2023/06/10 03:54:54;;;;;;;15.15;10.15;;;;;;;18.20;87.39;98856.41;4989331;28;20030;-80
2023/06/10 03:57:20;;;;;;;12.82;9.18;;;;;;;18.30;86.54;98855.59;4988896;28;20026;-79
2023/06/10 03:59:45;;;;;;;16.45;8.48;;;;;;;18.30;86.86;98851.97;4989811;28;20034;-79
2023/06/10 04:02:11;;;;;;;14.57;8.73;;;;;;;18.48;85.96;98854.81;4987283;28;20033;-79
2023/06/10 04:04:37;;;;;;;11.57;9.07;;;;;;;18.48;86.36;98855.63;4974576;28;20027;-79
2023/06/10 04:07:04;;;;;;;12.60;9.88;;;;;;;18.65;85.61;98864.53;5008798;28;20113;-79
2023/06/10 04:09:29;;;;;;;15.73;10.43;;;;;;;18.67;85.20;98857.22;4991721;28;20026;-79
2023/06/10 04:11:54;;;;;;;14.18;10.13;;;;;;;18.66;85.39;98869.78;4991866;28;20022;-79
2023/06/10 04:14:20;;;;;;;38.83;20.38;;;;;;;18.60;85.55;98871.41;4993976;28;20022;-79
2023/06/10 04:16:45;;;;;;;22.67;12.00;;;;;;;18.36;86.13;98858.84;4994897;28;20026;-79
2023/06/10 04:19:11;;;;;;;21.25;11.18;;;;;;;18.44;85.83;98879.47;4990154;28;20026;-79
2023/06/10 04:21:37;;;;;;;14.68;10.77;;;;;;;18.41;85.95;98864.13;4990083;28;20463;-79
2023/06/10 04:24:03;;;;;;;18.25;12.35;;;;;;;18.53;85.41;98868.56;5009688;28;20189;-78
2023/06/10 04:26:28;;;;;;;18.38;11.88;;;;;;;18.60;85.18;98862.91;4992936;28;20029;-79
2023/06/10 04:28:54;;;;;;;22.00;11.80;;;;;;;18.72;84.51;98866.56;4992028;28;20022;-78
2023/06/10 04:31:19;;;;;;;16.10;11.68;;;;;;;18.82;83.69;98862.09;4989757;28;20022;-79
2023/06/10 04:33:45;;;;;;;17.23;11.93;;;;;;;18.93;83.98;98863.69;4993126;28;20098;-79
2023/06/10 04:36:10;;;;;;;20.27;11.65;;;;;;;18.90;83.98;98861.66;4994368;28;20034;-79
2023/06/10 04:38:36;;;;;;;20.13;13.68;;;;;;;18.96;83.06;98869.78;4994426;28;20110;-79
2023/06/10 04:41:02;;;;;;;19.40;12.80;;;;;;;19.12;81.79;98860.84;4993468;28;20018;-79
2023/06/10 04:43:28;;;;;;;18.52;13.93;;;;;;;19.18;81.20;98867.72;4989833;28;20018;-79
2023/06/10 04:45:54;;;;;;;18.85;13.25;;;;;;;19.05;82.00;98879.50;5005889;28;20321;-79
2023/06/10 04:48:20;;;;;;;20.70;13.18;;;;;;;19.18;81.62;98859.22;5007473;28;20069;-80
2023/06/10 04:50:46;;;;;;;22.15;12.80;;;;;;;19.16;81.88;98873.78;4993067;28;20049;-79
2023/06/10 04:53:11;;;;;;;21.45;13.80;;;;;;;19.33;81.82;98866.47;4991643;28;20033;-79
2023/06/10 04:55:36;;;;;;;25.92;14.73;;;;;;;18.96;82.87;98864.09;4992460;28;20034;-79
2023/06/10 04:58:02;;;;;;;19.38;13.65;;;;;;;19.18;82.33;98868.50;4984393;28;20064;-79
2023/06/10 05:00:28;;;;;;;18.65;14.15;;;;;;;19.30;81.53;98867.28;4992739;28;20022;-79
2023/06/10 05:02:53;;;;;;;16.35;12.90;;;;;;;19.43;81.25;98873.34;4992432;28;20058;-79
2023/06/10 05:05:19;;;;;;;26.92;14.85;;;;;;;19.45;81.04;98872.91;5006096;28;20026;-80
2023/06/10 05:07:45;;;;;;;22.60;14.93;;;;;;;19.53;80.54;98868.00;4974498;28;20029;-79
2023/06/10 05:10:12;;;;;;;32.35;15.43;;;;;;;19.49;80.37;98862.38;4977189;28;20058;-80
2023/06/10 05:12:38;;;;;;;23.63;13.30;;;;;;;19.53;80.21;98865.19;4989360;28;20030;-84
2023/06/10 05:15:05;;;;;;;169.60;23.52;;;;;;;19.59;79.59;98860.72;4988166;28;20037;-73
2023/06/10 05:17:31;;;;;;;28.70;14.60;;;;;;;19.22;81.80;98865.69;4993289;28;20413;-73
2023/06/10 05:19:56;;;;;;;30.50;13.80;;;;;;;19.45;81.30;98872.91;4993086;28;20018;-76
2023/06/10 05:22:24;;;;;;;11.65;10.18;;;;;;;19.35;81.37;98874.56;4992340;28;20038;-74
2023/06/10 05:24:51;;;;;;;17.63;9.77;;;;;;;19.35;82.22;98868.91;4991727;28;20508;-79
2023/06/10 05:27:17;;;;;;;12.80;9.85;;;;;;;19.43;82.48;98869.69;4990468;28;20121;-78
2023/06/10 05:29:42;;;;;;;16.35;10.05;;;;;;;19.28;84.23;98874.56;5006908;28;20525;-87
2023/06/10 05:32:08;;;;;;;22.13;10.45;;;;;;;19.59;83.75;98881.34;5005826;28;20096;-79
2023/06/10 05:34:33;;;;;;;17.98;9.93;;;;;;;19.73;83.91;98874.81;4992531;28;20068;-74
2023/06/10 05:36:59;;;;;;;20.25;9.25;;;;;;;19.58;85.66;98873.28;4990602;28;20026;-72
2023/06/10 05:39:25;;;;;;;19.08;9.02;;;;;;;19.50;86.19;98867.63;4993477;28;20077;-75
2023/06/10 05:41:50;;;;;;;15.52;9.70;;;;;;;19.47;87.58;98876.13;4991543;28;20037;-77
2023/06/10 05:44:16;;;;;;;16.42;10.55;;;;;;;19.60;88.07;98873.66;4992816;28;20030;-76
2023/06/10 05:46:41;;;;;;;17.00;10.63;;;;;;;19.72;86.65;98873.22;4988793;28;20493;-79
2023/06/10 05:49:07;;;;;;;12.27;9.45;;;;;;;20.09;83.81;98878.72;4993326;28;20057;-80
2023/06/10 05:51:32;;;;;;;12.35;9.05;;;;;;;19.91;83.44;98879.63;4983898;28;20490;-83
2023/06/10 05:53:57;;;;;;;17.30;9.70;;;;;;;19.81;83.06;98886.16;4987853;28;20505;-82
2023/06/10 05:56:23;;;;;;;9.07;7.93;;;;;;;19.62;81.82;98882.56;5001147;28;20953;-76
2023/06/10 05:58:49;;;;;;;15.93;8.90;;;;;;;20.11;80.31;98884.78;4988871;28;20030;-80
2023/06/10 06:01:15;;;;;;;9.00;7.72;;;;;;;20.46;77.71;98899.97;4988700;28;20062;-80
2023/06/10 06:03:40;;;;;;;10.55;8.02;;;;;;;20.78;76.69;98890.41;4987753;28;20120;-82
2023/06/10 06:06:06;;;;;;;14.80;7.88;;;;;;;20.97;75.64;98893.91;5002324;28;20120;-80
2023/06/10 06:08:31;;;;;;;10.90;8.57;;;;;;;20.58;76.40;98902.31;5005034;28;20113;-74
2023/06/10 06:10:58;;;;;;;14.57;8.40;;;;;;;20.33;77.87;98889.13;4989870;28;20054;-78
2023/06/10 06:13:24;;;;;;;12.35;9.23;;;;;;;20.32;79.05;98901.69;4984746;28;20061;-76
2023/06/10 06:15:49;;;;;;;11.88;8.98;;;;;;;20.23;78.39;98892.81;4981356;28;20394;-78
2023/06/10 06:18:15;;;;;;;13.90;8.63;;;;;;;20.42;78.95;98882.97;4977214;28;20023;-78
2023/06/10 06:20:40;;;;;;;37.08;8.95;;;;;;;20.59;77.81;98880.44;4988683;28;20516;-81
2023/06/10 06:23:08;;;;;;;14.25;9.27;;;;;;;20.46;77.47;98882.94;4983011;28;20053;-81
2023/06/10 06:25:35;;;;;;;13.57;8.65;;;;;;;20.19;80.01;98889.22;4995264;28;20545;-79
2023/06/10 06:28:01;;;;;;;23.55;9.30;;;;;;;20.37;79.61;98886.25;4979540;28;20249;-85
2023/06/10 06:30:26;;;;;;;11.05;8.63;;;;;;;20.28;79.94;98883.88;4984262;28;20100;-86
2023/06/10 06:32:52;;;;;;;16.10;9.32;;;;;;;20.46;78.92;98880.94;4978867;28;20110;-86
2023/06/10 06:35:23;;;;;;;10.07;7.75;;;;;;;20.42;78.70;98859.44;4988491;28;20484;-86
2023/06/10 06:37:48;;;;;;;16.17;8.68;;;;;;;20.56;79.03;98875.56;4974819;28;20027;-86
2023/06/10 06:40:14;;;;;;;20.50;9.82;;;;;;;20.34;79.64;98861.53;4993053;28;20046;-86
2023/06/10 06:42:39;;;;;;;18.23;9.48;;;;;;;20.83;78.28;98857.94;5001056;28;20036;-87
2023/06/10 06:45:05;;;;;;;9.30;8.35;;;;;;;20.99;77.22;98857.34;4984069;28;20041;-87
2023/06/10 06:47:31;;;;;;;9.38;7.80;;;;;;;20.84;77.28;98863.16;4982073;28;20480;-86
2023/06/10 06:49:56;;;;;;;12.68;9.02;;;;;;;20.90;77.73;98855.81;4978600;28;20096;-86
2023/06/10 06:52:22;;;;;;;11.57;7.78;;;;;;;21.20;76.34;98855.50;4997831;28;20112;-84
2023/06/10 06:54:49;;;;;;;11.35;8.15;;;;;;;21.64;74.60;98848.09;4993805;28;20046;-82
2023/06/10 06:57:14;;;;;;;13.13;8.00;;;;;;;21.29;74.26;98858.66;4988778;28;20056;-83
2023/06/10 06:59:40;;;;;;;15.32;7.90;;;;;;;21.63;73.58;98851.34;4988949;28;20026;-83
2023/06/10 07:02:05;;;;;;;10.48;7.57;;;;;;;22.25;71.78;98855.00;5002415;28;20511;-83
2023/06/10 07:04:31;;;;;;;17.30;7.53;;;;;;;22.27;70.65;98834.66;5005770;28;20023;-83
2023/06/10 07:06:56;;;;;;;14.60;8.43;;;;;;;22.28;68.55;98842.75;5003686;28;20481;-84
2023/06/10 07:09:22;;;;;;;12.07;6.38;;;;;;;22.42;67.51;98830.34;4983764;28;20034;-82
2023/06/10 07:11:47;;;;;;;13.20;7.45;;;;;;;22.83;66.27;98845.56;4976339;28;20037;-86
2023/06/10 07:14:13;;;;;;;8.27;6.68;;;;;;;22.45;65.98;98834.38;4981369;28;20034;-86
2023/06/10 07:16:38;;;;;;;10.40;6.85;;;;;;;22.60;66.92;98839.84;4987889;28;20116;-84
2023/06/10 07:19:04;;;;;;;9.80;6.80;;;;;;;23.04;66.32;98840.69;4985237;28;20031;-80
2023/06/10 07:21:30;;;;;;;10.18;6.22;;;;;;;22.84;64.16;98850.00;4977034;28;20033;-83
2023/06/10 07:23:57;;;;;;;7.78;5.70;;;;;;;22.97;63.07;98841.63;4979538;28;20034;-87
2023/06/10 07:26:22;;;;;;;8.63;5.20;;;;;;;22.67;63.47;98840.53;4985157;28;20026;-86
2023/06/10 07:28:48;;;;;;;13.68;5.80;;;;;;;22.70;63.14;98838.88;4974475;28;20081;-86
2023/06/10 07:31:13;;;;;;;6.00;5.03;;;;;;;22.93;62.84;98837.25;4986473;28;20068;-86
2023/06/10 07:33:39;;;;;;;5.75;5.20;;;;;;;23.21;62.68;98826.53;4990159;28;20092;-86
2023/06/10 07:36:06;;;;;;;10.30;5.43;;;;;;;23.48;61.48;98828.47;4978521;28;20054;-87
2023/06/10 07:38:31;;;;;;;23.10;5.78;;;;;;;23.42;61.75;98837.56;4989551;28;20038;-86
2023/06/10 07:40:57;;;;;;;8.90;6.22;;;;;;;23.06;61.08;98826.81;4991638;28;20034;-86
2023/06/10 07:43:23;;;;;;;17.42;7.07;;;;;;;23.39;61.31;98834.75;4980722;28;20531;-81
2023/06/10 07:45:48;;;;;;;7.82;6.28;;;;;;;23.69;57.78;98830.88;5000542;28;20163;-82
2023/06/10 07:48:14;;;;;;;8.80;6.13;;;;;;;23.94;59.23;98820.94;5005207;28;20058;-84
2023/06/10 07:50:40;;;;;;;7.05;5.30;;;;;;;24.49;57.58;98831.13;4979869;28;20054;-84
2023/06/10 07:53:05;;;;;;;5.60;5.10;;;;;;;24.17;57.65;98830.66;4990507;28;20034;-83
2023/06/10 07:55:31;;;;;;;7.65;5.38;;;;;;;24.11;57.18;98829.56;4975682;28;20501;-85
2023/06/10 07:57:56;;;;;;;13.63;5.65;;;;;;;23.95;56.58;98818.88;4981812;28;20023;-84
2023/06/10 08:00:22;;;;;;;9.73;6.75;;;;;;;24.01;58.04;98824.88;4975634;28;20027;-84
2023/06/10 08:02:47;;;;;;;10.00;4.97;;;;;;;24.36;58.91;98823.25;4995596;28;20022;-79
2023/06/10 08:05:13;;;;;;;6.22;5.38;;;;;;;24.21;55.28;98822.00;4992319;28;20033;-82
2023/06/10 08:07:39;;;;;;;6.50;4.93;;;;;;;24.49;54.47;98826.19;4993662;28;20109;-81
2023/06/10 08:10:06;;;;;;;8.00;5.38;;;;;;;24.32;54.71;98833.97;4991752;28;20046;-79
2023/06/10 08:12:33;;;;;;;12.77;5.78;;;;;;;24.87;54.16;98833.44;4993635;28;20105;-81
2023/06/10 08:14:58;;;;;;;6.00;5.22;;;;;;;25.04;53.92;98839.94;4990800;28;20038;-81
2023/06/10 08:17:24;;;;;;;7.22;5.40;;;;;;;24.99;53.78;98831.09;4981656;28;20026;-81
2023/06/10 08:19:49;;;;;;;6.72;5.30;;;;;;;24.76;53.20;98825.13;4993285;28;20026;-81
2023/06/10 08:22:15;;;;;;;9.15;4.75;;;;;;;24.49;52.70;98825.41;4993750;28;20030;-80
2023/06/10 08:24:40;;;;;;;7.35;5.50;;;;;;;24.67;53.13;98833.53;4978376;28;20030;-80
2023/06/10 08:27:06;;;;;;;6.75;5.38;;;;;;;24.77;51.39;98828.81;4992250;28;20496;-79
2023/06/10 08:29:32;;;;;;;11.70;5.30;;;;;;;25.04;51.35;98825.66;4987134;28;20027;-80
2023/06/10 08:31:58;;;;;;;60.50;11.18;;;;;;;24.68;53.62;98835.94;4985674;28;20026;-77
2023/06/10 08:34:23;;;;;;;7.97;5.28;;;;;;;25.00;52.12;98830.66;4993432;28;20408;-84
2023/06/10 08:36:53;;;;;;;8.10;4.47;;;;;;;25.09;50.26;98827.94;4977179;28;20498;-85
2023/06/10 08:39:19;;;;;;;45.37;7.30;;;;;;;25.70;48.87;98832.41;4988938;28;20081;-85
2023/06/10 08:41:57;;;;;;;7.38;4.32;;;;;;;26.26;45.46;98827.47;4989436;28;20036;-85
2023/06/10 08:44:28;;;;;;;8.80;4.00;;;;;;;26.19;45.17;98831.34;4978772;28;20019;-83
2023/06/10 08:46:58;;;;;;;5.60;3.80;;;;;;;25.98;45.76;98833.59;4990755;28;20096;-83
2023/06/10 08:49:26;;;;;;;5.45;4.38;;;;;;;25.92;47.64;98830.50;4992978;28;20568;-84
2023/06/10 08:51:57;;;;;;;8.70;4.97;;;;;;;25.85;48.52;98827.88;4982547;28;20035;-83
2023/06/10 08:54:27;;;;;;;9.13;4.53;;;;;;;26.10;49.73;98823.41;4987487;28;20489;-84
2023/06/10 08:56:55;;;;;;;6.15;5.03;;;;;;;25.63;49.64;98828.50;4989586;28;20481;-77
2023/06/10 08:59:21;;;;;;;9.23;5.38;;;;;;;25.77;49.92;98826.47;4986782;28;20022;-77
2023/06/10 09:01:47;;;;;;;10.23;4.85;;;;;;;25.65;49.49;98828.06;4982493;28;20022;-77
2023/06/10 09:04:13;;;;;;;9.00;4.22;;;;;;;26.17;49.86;98823.19;4983894;28;20018;-79
2023/06/10 09:06:40;;;;;;;5.55;4.75;;;;;;;26.00;49.62;98818.81;4993390;28;20023;-79
2023/06/10 09:09:07;;;;;;;8.60;5.32;;;;;;;26.14;49.96;98820.44;4977534;28;20022;-81
2023/06/10 09:11:32;;;;;;;7.05;4.45;;;;;;;26.11;49.47;98815.63;4990974;28;20054;-77
2023/06/10 09:13:58;;;;;;;10.48;4.43;;;;;;;26.36;49.80;98814.84;5009007;28;20023;-79
2023/06/10 09:16:27;;;;;;;8.85;5.05;;;;;;;25.91;50.01;98820.31;4979370;28;20054;-79
2023/06/10 09:18:55;;;;;;;5.68;4.28;;;;;;;26.04;50.28;98813.78;4989100;28;20030;-79
2023/06/10 09:21:24;;;;;;;7.10;5.53;;;;;;;26.38;50.57;98809.44;4979486;28;20464;-85
2023/06/10 09:23:50;;;;;;;7.93;5.00;;;;;;;26.57;49.05;98803.94;4992904;28;20030;-82
2023/06/10 09:26:16;;;;;;;6.80;3.90;;;;;;;26.34;48.20;98806.69;4981841;28;20039;-81
2023/06/10 09:28:44;;;;;;;7.45;4.60;;;;;;;26.88;47.73;98797.56;4992114;28;20500;-81
2023/06/10 09:31:10;;;;;;;13.63;4.70;;;;;;;27.46;47.29;98807.75;4978624;28;20030;-81
2023/06/10 09:33:39;;;;;;;26.98;5.85;;;;;;;27.70;44.71;98812.22;4985598;28;20022;-80
2023/06/10 09:36:05;;;;;;;9.95;4.22;;;;;;;27.75;43.55;98803.00;5000573;28;20083;-81
2023/06/10 09:38:33;;;;;;;6.65;4.38;;;;;;;27.16;43.40;98803.56;4980729;28;20022;-80
2023/06/10 09:41:01;;;;;;;10.65;5.20;;;;;;;28.07;44.41;98818.16;4992203;28;20034;-82
2023/06/10 09:43:44;;;;;;;9.13;4.22;;;;;;;28.04;42.31;98813.38;4992077;28;20173;-81
2023/06/10 09:46:17;;;;;;;10.18;4.18;;;;;;;27.71;42.53;98823.25;4993712;28;20026;-81
2023/06/10 09:48:44;;;;;;;6.28;3.72;;;;;;;27.71;41.92;98816.72;4982754;28;20022;-80
2023/06/10 09:51:10;;;;;;;5.85;3.33;;;;;;;27.44;43.14;98812.38;4992267;28;20033;-80
2023/06/10 09:53:36;;;;;;;5.13;3.25;;;;;;;27.49;42.71;98814.63;4985531;28;20023;-81
2023/06/10 09:56:02;;;;;;;9.75;5.18;;;;;;;27.56;42.02;98813.56;5002850;28;20064;-80
2023/06/10 09:58:36;;;;;;;10.48;3.75;;;;;;;27.24;43.30;98816.34;4992385;28;20058;-80
2023/06/10 10:01:05;;;;;;;6.82;3.67;;;;;;;27.20;43.38;98812.81;4975885;28;20036;-80
2023/06/10 10:03:30;;;;;;;5.38;3.75;;;;;;;27.11;43.77;98813.56;4986080;28;20050;-80
2023/06/10 10:06:02;;;;;;;11.43;4.78;;;;;;;26.99;42.93;98803.72;4984839;28;20026;-79
2023/06/10 10:08:28;;;;;;;7.18;4.70;;;;;;;26.95;43.08;98805.91;4978839;28;20027;-79
2023/06/10 10:10:56;;;;;;;4.18;3.40;;;;;;;27.12;42.98;98805.72;4991674;28;20120;-80
2023/06/10 10:13:21;;;;;;;5.22;3.88;;;;;;;26.79;42.52;98809.72;4993387;28;20101;-80
2023/06/10 10:15:47;;;;;;;7.03;3.67;;;;;;;26.65;43.63;98811.00;4992014;28;20056;-80
2023/06/10 10:18:19;;;;;;;6.70;4.03;;;;;;;26.91;43.85;98811.00;4989284;28;20034;-80
2023/06/10 10:20:52;;;;;;;5.03;3.83;;;;;;;26.62;42.81;98806.19;4989464;28;20120;-80
2023/06/10 10:23:34;;;;;;;6.95;3.53;;;;;;;26.85;44.13;98810.75;4973188;28;20025;-80
2023/06/10 10:26:03;;;;;;;6.47;3.20;;;;;;;27.10;43.67;98811.94;5006991;28;20037;-79
2023/06/10 10:28:39;;;;;;;5.27;3.33;;;;;;;27.02;43.98;98811.38;4989467;28;20110;-80
2023/06/10 10:31:11;;;;;;;6.82;3.50;;;;;;;27.18;43.86;98798.13;4992152;28;20356;-80
2023/06/10 10:33:53;;;;;;;9.77;3.78;;;;;;;27.17;42.22;98796.53;4993436;28;20054;-78
2023/06/10 10:36:19;;;;;;;6.72;3.15;;;;;;;27.21;42.38;98793.50;4993135;28;20501;-82
2023/06/10 10:38:47;;;;;;;6.22;3.42;;;;;;;27.21;43.01;98800.06;4991882;28;20099;-82
2023/06/10 10:41:13;;;;;;;10.55;4.15;;;;;;;26.78;43.08;98797.44;4988106;28;20039;-78
2023/06/10 10:43:41;;;;;;;8.95;4.10;;;;;;;27.21;44.19;98793.50;4980405;28;20032;-80
2023/06/10 10:46:11;;;;;;;7.22;4.65;;;;;;;27.16;43.03;98794.94;4993040;28;20516;-80
2023/06/10 10:48:43;;;;;;;4.50;3.88;;;;;;;27.18;42.15;98796.06;5008278;28;20026;-80
2023/06/10 10:51:10;;;;;;;8.82;4.18;;;;;;;27.40;43.81;98800.22;4978263;28;20030;-80
2023/06/10 10:53:39;;;;;;;4.68;4.15;;;;;;;27.38;42.19;98785.50;4985187;28;20022;-81
2023/06/10 10:56:13;;;;;;;5.82;4.47;;;;;;;27.38;42.20;98785.50;4987329;28;20058;-81
2023/06/10 10:58:39;;;;;;;6.70;4.40;;;;;;;27.33;43.20;98781.97;5003507;28;20038;-83
2023/06/10 11:01:14;;;;;;;27.70;12.77;;;;;;;27.60;42.11;98783.44;4985709;28;20063;-78
2023/06/10 11:03:47;;;;;;;6.70;4.38;;;;;;;27.49;42.34;98779.38;4987300;28;20160;-79
2023/06/10 11:06:15;;;;;;;8.75;4.22;;;;;;;27.52;42.62;98776.38;4982260;28;20389;-77
2023/06/10 11:08:40;;;;;;;4.25;3.42;;;;;;;27.69;39.78;98776.16;4988824;28;20527;-78
2023/06/10 11:11:25;;;;;;;4.60;3.80;;;;;;;27.35;42.45;98764.31;4984943;28;20122;-77
2023/06/10 11:14:04;;;;;;;9.48;5.50;;;;;;;27.59;41.54;98767.50;4986763;28;20096;-80
2023/06/10 11:16:37;;;;;;;9.50;5.60;;;;;;;27.66;40.76;98771.38;4988460;28;20501;-73
2023/06/10 11:19:03;;;;;;;8.15;3.88;;;;;;;27.75;40.30;98771.41;4983559;28;20026;-73
2023/06/10 11:21:28;;;;;;;5.80;4.10;;;;;;;27.93;40.29;98755.53;4984485;28;20450;-77
2023/06/10 11:23:54;;;;;;;9.20;5.03;;;;;;;27.95;40.43;98758.72;4990676;28;20038;-77